Time;durP1;ratioP1;P1;durP2;ratioP2;P2;SDS_P1;SDS_P2;PMS_P1;PMS_P2;Temp;Humidity;BMP_temperature;BMP_pressure;BME280_temperature;BME280_humidity;BME280_pressure;Samples;Min_cycle;Max_cycle;Signal;HPM_P1;HPM_P2
2022/07/18 00:03:07;;;;;;;4.97;1.65;;;;;;;16.97;47.29;101329.16;10233347;28;20125;-77
2022/07/18 00:08:10;;;;;;;2.92;1.40;;;;;;;16.58;48.49;101341.84;10234547;28;20149;-77
2022/07/18 00:13:14;;;;;;;5.00;1.48;;;;;;;16.30;49.26;101335.38;10269117;28;22091;-76
2022/07/18 00:18:17;;;;;;;5.25;1.60;;;;;;;16.36;49.14;101332.97;10217528;28;20058;-76
2022/07/18 00:23:20;;;;;;;3.42;1.80;;;;;;;16.55;49.07;101326.72;10230295;28;20549;-76
2022/07/18 00:28:24;;;;;;;2.30;1.60;;;;;;;16.60;48.62;101315.44;10212376;28;20505;-77
2022/07/18 00:33:27;;;;;;;3.10;1.73;;;;;;;16.62;48.34;101309.88;10230196;28;20055;-76
2022/07/18 00:38:29;;;;;;;3.75;2.47;;;;;;;16.75;48.17;101302.31;10224294;28;20274;-76
2022/07/18 00:43:34;;;;;;;3.40;1.67;;;;;;;16.93;47.86;101294.31;10214952;28;20157;-76
2022/07/18 00:48:37;;;;;;;3.30;1.50;;;;;;;16.97;47.30;101279.44;10227011;28;20051;-77
2022/07/18 00:53:40;;;;;;;4.35;1.50;;;;;;;16.75;47.11;101277.91;10240786;28;20152;-77
2022/07/18 00:58:44;;;;;;;4.45;2.55;;;;;;;16.58;47.99;101283.03;10228359;28;20153;-77
2022/07/18 01:03:47;;;;;;;4.70;1.50;;;;;;;16.65;47.60;101279.75;10233304;28;20186;-76
2022/07/18 01:08:51;;;;;;;2.30;1.40;;;;;;;16.54;47.65;101265.34;10211024;28;20701;-76
2022/07/18 01:13:55;;;;;;;3.30;1.60;;;;;;;16.51;48.00;101264.75;10220311;28;20179;-76
2022/07/18 01:18:58;;;;;;;6.03;2.92;;;;;;;16.45;47.87;101268.88;10234809;28;20612;-76
2022/07/18 01:24:03;;;;;;;8.90;2.10;;;;;;;16.30;48.12;101278.44;10226112;28;20122;-76
2022/07/18 01:29:05;;;;;;;5.85;1.70;;;;;;;16.35;48.75;101285.16;10235584;28;20058;-76
2022/07/18 01:34:08;;;;;;;3.28;1.58;;;;;;;16.19;48.71;101287.53;10238358;28;21646;-77
2022/07/18 01:39:13;;;;;;;1.92;1.40;;;;;;;15.92;49.57;101283.59;10225003;28;20095;-77
2022/07/18 01:44:15;;;;;;;2.72;1.60;;;;;;;16.01;49.71;101281.91;10244162;28;20162;-77
2022/07/18 01:49:19;;;;;;;1.98;1.55;;;;;;;15.89;49.70;101266.75;10253145;28;20500;-77
2022/07/18 01:54:25;;;;;;;2.75;1.70;;;;;;;15.86;49.82;101273.31;10246075;28;20109;-77
2022/07/18 01:59:28;;;;;;;4.72;1.55;;;;;;;15.88;50.00;101275.88;10235742;28;20064;-77
2022/07/18 02:09:53;;;;;;;3.53;2.10;;;;;;;15.82;50.35;101271.84;10223069;28;20054;-77
2022/07/18 02:14:56;;;;;;;6.25;2.15;;;;;;;15.77;50.28;101257.00;10236276;28;20080;-77
2022/07/18 02:19:59;;;;;;;2.65;1.70;;;;;;;15.67;50.61;101263.25;10224113;28;20583;-77
2022/07/18 02:25:03;;;;;;;2.85;1.50;;;;;;;15.42;51.30;101252.88;10237632;28;20512;-76
2022/07/18 02:30:10;;;;;;;5.40;2.00;;;;;;;15.54;51.21;101245.53;10240632;28;20051;-77
2022/07/18 02:35:12;;;;;;;2.13;1.52;;;;;;;15.52;50.81;101239.38;10232423;28;20106;-77
2022/07/18 02:40:17;;;;;;;3.63;1.70;;;;;;;15.50;51.01;101255.78;10233185;28;20058;-77
2022/07/18 02:45:20;;;;;;;3.72;1.90;;;;;;;15.47;51.20;101248.78;10245585;28;20558;-77
2022/07/18 02:50:23;;;;;;;2.63;1.40;;;;;;;15.47;51.10;101253.34;10233484;28;20081;-77
2022/07/18 02:55:27;;;;;;;3.47;1.90;;;;;;;15.30;51.26;101251.19;10245181;28;20259;-76
2022/07/18 03:00:30;;;;;;;3.92;1.90;;;;;;;15.15;51.84;101248.84;10223438;28;20134;-76
2022/07/18 03:05:33;;;;;;;3.33;1.55;;;;;;;15.19;51.69;101249.44;10229652;28;21165;-76
2022/07/18 03:10:37;;;;;;;2.92;1.75;;;;;;;15.18;51.38;101243.16;10268521;28;20192;-76
2022/07/18 03:15:40;;;;;;;3.67;1.75;;;;;;;15.04;51.81;101243.50;10245488;28;20055;-76
2022/07/18 03:20:43;;;;;;;4.10;1.67;;;;;;;15.02;52.21;101230.09;10213430;28;20134;-76
2022/07/18 03:25:47;;;;;;;3.25;1.70;;;;;;;14.98;52.16;101238.63;10241104;28;21576;-76
2022/07/18 03:30:50;;;;;;;3.70;1.88;;;;;;;14.79;52.77;101240.22;10230975;28;20053;-76
2022/07/18 03:35:53;;;;;;;5.07;2.17;;;;;;;14.86;52.78;101236.97;10245089;28;20065;-76
2022/07/18 03:40:57;;;;;;;4.88;1.98;;;;;;;14.91;52.48;101227.47;10237808;28;20635;-76
2022/07/18 03:46:00;;;;;;;3.10;1.88;;;;;;;14.86;52.53;101224.31;10212536;28;20134;-76
2022/07/18 03:51:04;;;;;;;3.03;1.80;;;;;;;14.95;52.43;101217.28;10213841;28;20401;-76
2022/07/18 03:56:09;;;;;;;3.53;1.90;;;;;;;14.97;52.43;101220.69;10228750;28;20053;-77
2022/07/18 04:01:12;;;;;;;5.00;2.15;;;;;;;15.04;52.30;101216.47;10236520;28;20171;-76
2022/07/18 04:06:15;;;;;;;4.63;1.80;;;;;;;15.18;52.02;101216.09;10227144;28;20047;-77
2022/07/18 04:11:23;;;;;;;4.03;1.92;;;;;;;15.16;51.87;101220.78;10232157;28;20057;-76
2022/07/18 04:16:26;;;;;;;4.30;1.70;;;;;;;15.14;51.86;101232.72;10232622;28;20145;-76
2022/07/18 04:21:29;;;;;;;2.78;1.85;;;;;;;15.19;52.08;101227.78;10226943;28;20051;-76
2022/07/18 04:26:33;;;;;;;5.07;1.55;;;;;;;15.39;52.05;101226.94;10233461;28;20720;-76
2022/07/18 04:31:36;;;;;;;3.28;1.60;;;;;;;15.56;51.72;101221.88;10213129;28;20075;-76
2022/07/18 04:36:39;;;;;;;7.43;1.77;;;;;;;15.66;51.83;101220.94;10228423;28;20054;-76
2022/07/18 04:41:44;;;;;;;4.57;2.63;;;;;;;15.68;51.96;101223.47;10226727;28;20069;-76
2022/07/18 04:46:46;;;;;;;4.47;1.80;;;;;;;15.74;51.45;101216.66;10216086;28;20070;-76
2022/07/18 04:51:49;;;;;;;4.68;1.75;;;;;;;15.88;51.43;101219.00;10230401;28;20066;-76
2022/07/18 04:56:53;;;;;;;3.30;1.75;;;;;;;16.10;51.65;101212.47;10216359;28;20420;-76
2022/07/18 05:01:56;;;;;;;2.95;1.92;;;;;;;16.14;51.01;101217.44;10212150;28;20083;-76
2022/07/18 05:06:59;;;;;;;7.10;2.13;;;;;;;16.08;50.94;101207.19;10227577;28;20058;-77
2022/07/18 05:12:04;;;;;;;2.15;1.50;;;;;;;16.00;51.29;101207.03;10246832;28;20042;-76
2022/07/18 05:17:07;;;;;;;4.32;1.70;;;;;;;16.23;51.84;101204.06;10212184;28;20126;-76
2022/07/18 05:22:10;;;;;;;2.85;1.70;;;;;;;16.55;51.30;101204.66;10230649;28;20070;-76
2022/07/18 05:27:14;;;;;;;3.88;1.85;;;;;;;16.76;51.40;101212.66;10226069;28;20158;-76
2022/07/18 05:32:17;;;;;;;5.35;2.15;;;;;;;16.85;50.71;101205.50;10232151;28;20158;-76
2022/07/18 05:37:22;;;;;;;4.68;1.92;;;;;;;17.02;51.08;101212.88;10220534;28;20054;-76
2022/07/18 05:42:26;;;;;;;7.90;2.22;;;;;;;17.22;50.57;101224.59;10226023;28;21392;-76
2022/07/18 05:47:49;;;;;;;5.07;1.70;;;;;;;17.44;50.41;101222.50;10226150;28;21256;-77
2022/07/18 05:52:53;;;;;;;5.22;1.88;;;;;;;17.64;49.26;101212.41;10216095;28;20243;-76
2022/07/18 05:57:57;;;;;;;2.67;1.52;;;;;;;17.75;48.50;101205.94;10228014;28;20055;-76
2022/07/18 06:03:00;;;;;;;4.82;1.40;;;;;;;17.94;48.41;101192.22;10222349;28;20051;-76
2022/07/18 06:08:04;;;;;;;4.50;1.55;;;;;;;18.03;48.06;101182.31;10220818;28;20043;-76
2022/07/18 06:13:08;;;;;;;3.60;1.52;;;;;;;18.23;46.72;101172.13;10280281;28;20092;-76
2022/07/18 06:18:11;;;;;;;2.10;1.40;;;;;;;18.43;45.93;101183.69;10250336;28;20063;-77
2022/07/18 06:23:14;;;;;;;3.65;1.40;;;;;;;18.76;45.81;101176.69;10266720;28;20051;-77
2022/07/18 06:28:19;;;;;;;5.05;1.63;;;;;;;18.88;45.73;101178.16;10257640;28;20051;-77
2022/07/18 06:33:22;;;;;;;3.35;1.50;;;;;;;19.00;45.54;101176.84;10246181;28;20051;-77
2022/07/18 06:38:25;;;;;;;4.45;1.60;;;;;;;19.31;45.10;101164.59;10251385;28;20932;-76
2022/07/18 06:43:29;;;;;;;7.82;2.75;;;;;;;19.57;44.18;101164.59;10249202;28;20523;-76
2022/07/18 06:48:34;;;;;;;6.28;1.80;;;;;;;19.61;44.72;101152.31;10243358;28;20149;-77
2022/07/18 06:53:37;;;;;;;4.07;1.40;;;;;;;20.15;43.73;101163.72;10250077;28;20061;-76
2022/07/18 06:58:42;;;;;;;4.28;1.42;;;;;;;20.52;42.97;101149.63;10244616;28;20061;-77
2022/07/18 07:03:45;;;;;;;3.53;1.40;;;;;;;20.83;42.63;101158.97;10251079;28;20058;-77
2022/07/18 07:08:48;;;;;;;5.47;1.63;;;;;;;21.13;41.96;101152.78;10240111;28;20050;-78
2022/07/18 07:13:52;;;;;;;6.00;2.40;;;;;;;21.40;40.40;101148.75;10240337;28;20528;-77
2022/07/18 07:18:55;;;;;;;5.03;1.70;;;;;;;21.78;39.43;101150.84;10230055;28;20055;-77
2022/07/18 07:23:58;;;;;;;3.55;1.40;;;;;;;22.18;40.18;101157.91;10246675;28;20046;-77
2022/07/18 07:29:02;;;;;;;7.93;1.25;;;;;;;23.05;37.05;101157.50;10250798;28;20054;-77
2022/07/18 07:34:05;;;;;;;5.75;1.60;;;;;;;24.42;35.80;101149.50;10240303;28;20050;-77
2022/07/18 07:39:08;;;;;;;4.88;1.60;;;;;;;26.05;32.37;101144.53;10253811;28;20141;-77
2022/07/18 07:44:13;;;;;;;3.97;1.30;;;;;;;28.52;29.74;101129.00;10257330;28;20694;-77
2022/07/18 07:49:15;;;;;;;2.58;1.38;;;;;;;29.84;27.39;101136.09;10253826;28;20050;-77
2022/07/18 07:54:18;;;;;;;4.03;1.40;;;;;;;31.11;26.01;101139.34;10242838;28;20058;-78
2022/07/18 07:59:23;;;;;;;3.95;1.83;;;;;;;30.73;26.61;101114.88;10246403;28;20074;-77
2022/07/18 08:04:26;;;;;;;6.10;1.60;;;;;;;28.57;28.70;101114.53;10253259;28;20057;-77
2022/07/18 08:09:28;;;;;;;4.30;1.42;;;;;;;27.08;31.47;101106.41;10260203;28;20074;-77
2022/07/18 08:14:33;;;;;;;7.72;1.60;;;;;;;26.85;31.82;101103.28;10251642;28;20058;-77
2022/07/18 08:19:36;;;;;;;3.53;1.40;;;;;;;26.85;31.06;101114.31;10251669;28;20062;-77
2022/07/18 08:24:38;;;;;;;2.05;1.30;;;;;;;26.60;32.11;101109.44;10255503;28;20405;-78
2022/07/18 08:29:43;;;;;;;3.25;1.38;;;;;;;26.55;32.27;101106.50;10257016;28;20704;-78
2022/07/18 08:35:07;;;;;;;4.95;1.70;;;;;;;26.85;31.85;101101.41;10257920;28;20050;-77
2022/07/18 08:40:10;;;;;;;4.93;1.10;;;;;;;27.18;30.44;101105.97;10265958;28;20101;-77
2022/07/18 08:45:14;;;;;;;4.88;1.20;;;;;;;27.01;30.89;101102.81;10258607;28;20046;-77
2022/07/18 08:50:18;;;;;;;5.35;1.38;;;;;;;27.47;31.48;101101.84;10258111;28;20043;-78
2022/07/18 08:55:21;;;;;;;2.15;1.08;;;;;;;27.94;30.40;101105.19;10239649;28;20543;-78
2022/07/18 09:00:30;;;;;;;4.90;1.33;;;;;;;28.40;28.74;101111.47;10257057;28;20051;-78
2022/07/18 09:05:41;;;;;;;3.80;1.20;;;;;;;28.80;28.05;101111.97;10263952;28;20272;-78
2022/07/18 09:10:50;;;;;;;2.53;1.00;;;;;;;28.94;28.40;101107.16;10268987;28;20057;-76
2022/07/18 09:16:02;;;;;;;2.65;1.08;;;;;;;29.79;27.67;101111.91;10274021;28;20046;-77
2022/07/18 09:21:07;;;;;;;3.78;1.08;;;;;;;30.07;27.82;101102.94;10262884;28;21185;-78
2022/07/18 09:26:11;;;;;;;6.00;1.70;;;;;;;29.27;27.05;101109.56;10245619;28;20065;-77
2022/07/18 09:31:20;;;;;;;2.65;1.48;;;;;;;28.31;28.06;101099.00;10248000;28;20492;-77
2022/07/18 09:36:23;;;;;;;3.50;1.00;;;;;;;29.09;27.91;101104.88;10257740;28;20509;-77
2022/07/18 09:41:29;;;;;;;2.38;1.23;;;;;;;29.31;27.33;101096.94;10250924;28;20136;-77
2022/07/18 09:46:34;;;;;;;4.53;1.15;;;;;;;28.65;27.13;101095.75;10255682;28;20058;-77
2022/07/18 09:51:37;;;;;;;2.08;1.30;;;;;;;29.18;27.20;101088.81;10252327;28;20054;-77
2022/07/18 09:56:42;;;;;;;3.00;1.10;;;;;;;29.62;26.46;101080.41;10229134;28;20066;-77
2022/07/18 10:01:47;;;;;;;3.42;1.02;;;;;;;29.34;25.66;101084.56;10238524;28;20055;-77
2022/07/18 10:06:50;;;;;;;3.28;1.40;;;;;;;29.81;24.28;101071.81;10264726;28;20059;-77
2022/07/18 10:11:54;;;;;;;1.58;0.82;;;;;;;29.69;24.48;101070.09;10245503;28;20075;-77
2022/07/18 10:17:05;;;;;;;2.97;1.10;;;;;;;30.10;24.37;101077.53;10230217;28;20531;-77
2022/07/18 10:22:08;;;;;;;3.90;0.98;;;;;;;30.34;23.75;101072.06;10230246;28;20171;-77
2022/07/18 10:27:17;;;;;;;1.35;0.90;;;;;;;31.10;23.73;101065.53;10235606;28;20181;-77
2022/07/18 10:32:32;;;;;;;1.80;1.20;;;;;;;31.72;22.79;101053.75;10249013;28;20181;-77
2022/07/18 10:37:36;;;;;;;3.28;1.15;;;;;;;31.99;22.63;101045.63;10239547;28;20078;-77
2022/07/18 10:42:39;;;;;;;1.67;1.30;;;;;;;30.75;22.63;101062.81;10233429;28;20137;-78
2022/07/18 10:47:43;;;;;;;2.75;1.17;;;;;;;31.11;23.04;101038.63;10226513;28;20827;-77
2022/07/18 10:53:01;;;;;;;3.33;1.45;;;;;;;30.96;22.92;101050.22;10237155;28;20061;-77
2022/07/18 10:58:19;;;;;;;1.52;1.13;;;;;;;30.83;22.23;101044.97;10252220;28;20058;-78
2022/07/18 11:03:28;;;;;;;1.70;1.30;;;;;;;31.80;22.02;101019.16;10252031;28;20058;-76
2022/07/18 11:08:33;;;;;;;2.10;1.17;;;;;;;31.72;22.22;101016.81;10245190;28;20165;-77
2022/07/18 11:13:37;;;;;;;3.53;1.80;;;;;;;31.29;21.23;101009.88;10229890;28;20063;-77
2022/07/18 11:19:20;;;;;;;2.83;1.23;;;;;;;31.67;22.22;101002.81;10232748;28;20132;-78
2022/07/18 11:24:23;;;;;;;4.07;1.50;;;;;;;31.71;22.31;100990.16;10250443;28;20058;-78
2022/07/18 11:29:26;;;;;;;2.92;1.67;;;;;;;31.79;22.34;101007.22;10258189;28;20059;-77
2022/07/18 11:34:30;;;;;;;3.25;1.85;;;;;;;32.58;21.54;100985.94;10239237;28;20129;-77
2022/07/18 11:39:49;;;;;;;2.47;1.55;;;;;;;32.53;21.23;100992.28;10260220;28;20813;-78
2022/07/18 11:44:58;;;;;;;2.75;2.05;;;;;;;33.30;20.87;100982.16;10267571;28;20125;-78
2022/07/18 11:50:02;;;;;;;2.33;1.60;;;;;;;33.63;20.31;100983.91;10247710;28;20055;-77
2022/07/18 11:55:06;;;;;;;2.72;1.60;;;;;;;32.91;20.90;100989.72;10224176;28;20051;-78
2022/07/18 12:00:18;;;;;;;2.17;1.90;;;;;;;34.22;20.69;100980.19;10233069;28;20071;-78
2022/07/18 12:05:32;;;;;;;3.65;1.70;;;;;;;34.19;20.03;100975.16;10221394;28;20129;-78
2022/07/18 12:10:35;;;;;;;3.17;1.70;;;;;;;33.27;21.59;100971.56;10268481;28;20051;-77
2022/07/18 12:15:42;;;;;;;3.25;1.70;;;;;;;33.69;20.61;100963.34;10245935;28;20055;-79
2022/07/18 12:20:47;;;;;;;2.90;1.70;;;;;;;34.71;19.54;100959.59;10226235;28;20047;-78
2022/07/18 12:25:51;;;;;;;2.65;1.77;;;;;;;34.26;20.41;100952.63;10232844;28;20129;-77
2022/07/18 12:30:55;;;;;;;2.45;1.23;;;;;;;34.16;20.19;100947.84;10241816;28;20121;-79
2022/07/18 12:36:04;;;;;;;2.22;1.50;;;;;;;33.69;20.62;100952.19;10221121;28;20603;-78
2022/07/18 12:41:07;;;;;;;2.80;1.77;;;;;;;34.82;20.83;100945.41;10234067;28;20125;-78
2022/07/18 12:46:11;;;;;;;2.50;1.45;;;;;;;33.63;21.03;100942.13;10231644;28;20047;-78
2022/07/18 12:51:16;;;;;;;3.28;1.55;;;;;;;35.68;19.47;100923.50;10235369;28;20102;-79
2022/07/18 12:56:19;;;;;;;3.63;1.55;;;;;;;34.62;21.15;100928.59;10243712;28;20055;-78
2022/07/18 13:01:22;;;;;;;3.70;1.52;;;;;;;35.95;20.22;100926.88;10239569;28;20098;-79
2022/07/18 13:06:26;;;;;;;1.60;1.45;;;;;;;35.51;19.58;100916.25;10243098;28;20066;-79
2022/07/18 13:11:29;;;;;;;3.17;1.45;;;;;;;36.10;18.85;100900.03;10253015;28;20042;-78
2022/07/18 13:16:33;;;;;;;2.10;1.60;;;;;;;36.70;18.57;100909.31;10244087;28;20066;-78
2022/07/18 13:21:37;;;;;;;4.75;1.52;;;;;;;36.35;18.92;100899.94;10271436;28;20136;-79
2022/07/18 13:26:41;;;;;;;1.83;1.55;;;;;;;35.43;19.83;100879.66;10269030;28;20050;-78
2022/07/18 13:31:44;;;;;;;1.80;1.65;;;;;;;36.07;19.17;100889.41;10262130;28;20051;-78
2022/07/18 13:36:50;;;;;;;2.25;1.45;;;;;;;35.75;19.57;100887.75;10255415;28;20158;-78
2022/07/18 13:41:53;;;;;;;2.30;1.50;;;;;;;36.30;18.66;100882.34;10242027;28;20401;-79
2022/07/18 13:46:55;;;;;;;1.90;1.52;;;;;;;36.53;18.58;100872.47;10239820;28;20047;-79
2022/07/18 13:52:00;;;;;;;2.53;1.50;;;;;;;35.51;19.87;100874.34;10243958;28;20054;-78
2022/07/18 13:57:09;;;;;;;2.53;1.67;;;;;;;35.67;19.25;100863.19;10253373;28;20159;-78
2022/07/18 14:02:12;;;;;;;3.63;1.70;;;;;;;37.72;18.38;100863.00;10261884;28;20051;-78
2022/07/18 14:07:18;;;;;;;1.98;1.40;;;;;;;38.17;17.68;100860.00;10249030;28;20047;-78
2022/07/18 14:12:21;;;;;;;2.20;1.65;;;;;;;37.52;18.07;100855.59;10235067;28;20046;-78
2022/07/18 14:17:24;;;;;;;3.33;1.70;;;;;;;36.46;18.34;100849.59;10249605;28;20054;-79
2022/07/18 14:22:28;;;;;;;2.38;1.23;;;;;;;36.73;18.78;100844.38;10263111;28;21240;-78
2022/07/18 14:27:31;;;;;;;3.50;1.65;;;;;;;37.82;18.77;100839.59;10243443;28;20054;-78
2022/07/18 14:32:34;;;;;;;1.98;1.33;;;;;;;37.11;17.99;100838.25;10253844;28;20121;-78
2022/07/18 14:37:39;;;;;;;1.98;1.75;;;;;;;36.24;18.71;100842.38;10266289;28;20113;-78
2022/07/18 14:42:42;;;;;;;1.50;1.40;;;;;;;36.42;18.76;100831.69;10259798;28;20050;-78
2022/07/18 14:47:45;;;;;;;4.25;1.67;;;;;;;35.72;20.06;100829.66;10262200;28;20062;-78
2022/07/18 14:52:49;;;;;;;1.88;1.60;;;;;;;36.37;18.56;100822.22;10234828;28;20055;-78
2022/07/18 14:57:52;;;;;;;2.33;1.33;;;;;;;36.88;18.26;100818.28;10226701;28;20043;-77
2022/07/18 15:02:58;;;;;;;1.70;1.40;;;;;;;36.57;18.72;100815.66;10237193;28;20047;-78
2022/07/18 15:08:02;;;;;;;3.13;1.73;;;;;;;35.92;19.58;100809.22;10277136;28;20078;-78
2022/07/18 15:13:05;;;;;;;3.60;1.60;;;;;;;35.43;19.20;100807.88;10227556;28;21325;-78
2022/07/18 15:18:10;;;;;;;3.30;1.77;;;;;;;35.22;20.26;100814.59;10241481;28;20055;-79
2022/07/18 15:23:14;;;;;;;2.05;1.45;;;;;;;34.78;20.80;100809.53;10247670;28;20061;-78
2022/07/18 15:28:17;;;;;;;3.83;1.63;;;;;;;34.10;21.09;100810.41;10241043;28;20057;-78
2022/07/18 15:33:21;;;;;;;2.25;1.48;;;;;;;34.19;22.33;100811.53;10235218;28;20050;-77
2022/07/18 15:38:25;;;;;;;5.82;1.52;;;;;;;33.25;22.09;100807.59;10239946;28;20054;-77
2022/07/18 15:43:28;;;;;;;3.35;1.80;;;;;;;33.84;23.11;100805.78;10216349;28;20504;-77
2022/07/18 15:48:31;;;;;;;3.72;1.67;;;;;;;34.59;22.24;100789.69;10236831;28;20091;-78
2022/07/18 15:53:35;;;;;;;5.88;2.03;;;;;;;36.08;21.44;100791.28;10238287;28;20507;-77
2022/07/18 15:58:38;;;;;;;2.88;1.90;;;;;;;36.82;20.77;100789.50;10248735;28;20062;-77
2022/07/18 16:03:41;;;;;;;6.30;1.65;;;;;;;36.32;21.22;100774.66;10244424;28;20055;-77
2022/07/18 16:08:45;;;;;;;6.85;1.70;;;;;;;35.75;21.90;100776.00;10245781;28;20043;-77
2022/07/18 16:13:48;;;;;;;5.85;1.88;;;;;;;35.67;21.56;100769.03;10248785;28;20046;-76
2022/07/18 16:18:51;;;;;;;2.78;1.90;;;;;;;34.64;23.68;100767.34;10231995;28;20066;-77
2022/07/18 16:23:56;;;;;;;3.20;1.40;;;;;;;33.94;24.42;100759.31;10214376;28;20055;-77
2022/07/18 16:28:59;;;;;;;3.17;1.63;;;;;;;34.08;25.09;100750.44;10242876;28;20066;-78
2022/07/18 16:34:02;;;;;;;2.20;1.70;;;;;;;36.92;21.81;100741.00;10213212;28;20059;-77
2022/07/18 16:39:06;;;;;;;7.55;2.08;;;;;;;38.22;20.67;100736.53;10248384;28;20097;-78
2022/07/18 16:44:10;;;;;;;3.88;2.20;;;;;;;38.53;19.55;100732.13;10249846;28;20047;-79
2022/07/18 16:49:13;;;;;;;3.33;1.50;;;;;;;39.46;18.95;100723.81;10242261;28;20055;-78
2022/07/18 16:54:17;;;;;;;4.18;1.80;;;;;;;43.42;16.58;100711.72;10247255;28;20070;-78
2022/07/18 16:59:22;;;;;;;3.28;1.60;;;;;;;45.55;14.89;100703.25;10231358;28;20523;-77
2022/07/18 17:04:25;;;;;;;3.38;1.88;;;;;;;46.91;14.67;100715.09;10242386;28;20047;-78
2022/07/18 17:09:30;;;;;;;3.90;1.90;;;;;;;47.03;14.07;100713.00;10239222;28;20046;-78
2022/07/18 17:14:33;;;;;;;2.28;1.80;;;;;;;46.68;15.16;100715.66;10237994;28;20047;-79
2022/07/18 17:19:37;;;;;;;3.75;1.75;;;;;;;47.88;14.54;100709.84;10217554;28;20074;-78
2022/07/18 17:24:43;;;;;;;3.83;1.92;;;;;;;48.28;14.29;100714.44;10238788;28;20058;-78
2022/07/18 17:29:47;;;;;;;3.10;1.50;;;;;;;48.68;14.56;100716.91;10244575;28;20058;-78
2022/07/18 17:34:58;;;;;;;4.32;1.80;;;;;;;47.90;14.68;100713.16;10235531;28;20078;-79
2022/07/18 17:40:02;;;;;;;3.53;1.58;;;;;;;48.09;14.49;100713.19;10248075;28;20058;-79
2022/07/18 17:45:07;;;;;;;3.10;1.77;;;;;;;47.71;15.01;100709.06;10256628;28;20074;-78
2022/07/18 17:50:16;;;;;;;3.70;1.70;;;;;;;47.01;15.03;100706.03;10231259;28;20051;-78
2022/07/18 17:55:21;;;;;;;2.13;1.60;;;;;;;45.85;15.37;100709.50;10250795;28;20063;-78
2022/07/18 18:00:24;;;;;;;3.33;1.85;;;;;;;43.46;16.76;100709.88;10255282;28;20066;-78
2022/07/18 18:05:27;;;;;;;4.03;1.83;;;;;;;38.51;20.00;100705.56;10255684;28;20075;-78
2022/07/18 18:10:31;;;;;;;1.50;1.40;;;;;;;35.79;22.40;100715.63;10242820;28;20229;-79
2022/07/18 18:15:34;;;;;;;2.65;1.55;;;;;;;34.59;23.58;100706.84;10256196;28;20069;-79
2022/07/18 18:20:37;;;;;;;3.15;1.60;;;;;;;33.31;25.20;100711.88;10242239;28;20054;-78
2022/07/18 18:25:41;;;;;;;5.22;2.05;;;;;;;32.30;26.55;100709.84;10228773;28;20484;-77
2022/07/18 18:30:44;;;;;;;2.63;1.85;;;;;;;31.65;27.64;100719.00;10251391;28;20137;-79
2022/07/18 18:35:47;;;;;;;3.58;2.15;;;;;;;31.20;28.50;100717.25;10241378;28;20082;-77
2022/07/18 18:40:58;;;;;;;3.70;2.15;;;;;;;30.86;28.30;100711.69;10246094;28;20047;-79
2022/07/18 18:46:01;;;;;;;5.60;2.17;;;;;;;30.55;27.87;100713.06;10264024;28;20058;-78
2022/07/18 18:51:04;;;;;;;3.63;2.05;;;;;;;30.32;28.00;100719.56;10268995;28;20066;-78
2022/07/18 18:56:09;;;;;;;2.65;2.08;;;;;;;30.09;28.22;100717.69;10257761;28;20047;-79
2022/07/18 19:01:12;;;;;;;2.22;1.40;;;;;;;29.84;27.75;100710.56;10261100;28;20047;-78
2022/07/18 19:06:15;;;;;;;3.55;2.38;;;;;;;29.64;28.62;100718.41;10251956;28;20099;-78
2022/07/18 19:11:19;;;;;;;5.97;2.10;;;;;;;29.41;29.12;100713.72;10256678;28;20113;-78
2022/07/18 19:16:23;;;;;;;2.40;2.20;;;;;;;29.16;29.53;100714.81;10247103;28;20047;-79
2022/07/18 19:21:26;;;;;;;6.20;2.15;;;;;;;28.97;29.75;100718.75;10251508;28;20054;-79
2022/07/18 19:26:36;;;;;;;3.58;1.77;;;;;;;28.75;32.53;100715.72;10257543;28;20055;-77
2022/07/18 19:31:39;;;;;;;4.03;2.00;;;;;;;28.57;33.08;100722.13;10279295;28;20074;-79
2022/07/18 19:36:44;;;;;;;3.55;1.90;;;;;;;28.39;31.00;100720.25;10264500;28;20677;-78
2022/07/18 19:41:49;;;;;;;4.05;2.13;;;;;;;28.25;30.58;100723.22;10271218;28;20689;-79
2022/07/18 19:46:52;;;;;;;3.13;1.98;;;;;;;28.14;30.64;100725.91;10262764;28;20113;-78
2022/07/18 19:51:55;;;;;;;8.70;2.63;;;;;;;28.10;31.30;100720.00;10271964;28;20070;-79
2022/07/18 19:56:59;;;;;;;2.40;1.95;;;;;;;27.87;31.21;100731.75;10263751;28;20042;-78
2022/07/18 20:02:02;;;;;;;3.17;1.90;;;;;;;27.68;31.52;100741.09;10263064;28;20065;-78
2022/07/18 20:07:05;;;;;;;3.05;2.08;;;;;;;27.47;30.71;100737.69;10267918;28;20053;-78
2022/07/18 20:12:13;;;;;;;5.05;2.28;;;;;;;27.24;31.13;100741.09;10267433;28;20110;-79
2022/07/18 20:17:16;;;;;;;2.92;2.38;;;;;;;27.02;31.70;100740.66;10259997;28;20051;-78
2022/07/18 20:22:19;;;;;;;3.10;2.10;;;;;;;26.97;31.91;100740.47;10244819;28;20047;-79
2022/07/18 20:27:23;;;;;;;5.15;2.17;;;;;;;26.84;32.16;100735.06;10248270;28;20083;-78
2022/07/18 20:32:26;;;;;;;4.75;2.53;;;;;;;26.62;32.34;100734.56;10252303;28;20051;-79
2022/07/18 20:37:29;;;;;;;5.63;2.10;;;;;;;26.51;32.91;100733.34;10230747;28;20051;-79
2022/07/18 20:42:33;;;;;;;5.88;2.65;;;;;;;26.46;32.97;100731.25;10229668;28;20051;-78
2022/07/18 20:47:36;;;;;;;4.93;2.38;;;;;;;26.25;33.21;100728.84;10245331;28;20597;-78
2022/07/18 20:52:40;;;;;;;2.80;2.40;;;;;;;26.12;33.84;100726.97;10242709;28;20046;-78
2022/07/18 20:57:44;;;;;;;3.85;2.35;;;;;;;26.00;34.76;100725.94;10276506;28;20054;-79
2022/07/18 21:02:48;;;;;;;3.58;2.20;;;;;;;25.75;34.50;100729.44;10262435;28;20115;-78
2022/07/18 21:07:51;;;;;;;4.90;2.20;;;;;;;25.58;35.03;100730.94;10275049;28;20113;-77
2022/07/18 21:12:57;;;;;;;6.95;3.05;;;;;;;25.34;35.86;100738.81;10289613;28;20053;-77
2022/07/18 21:18:06;;;;;;;5.20;3.22;;;;;;;25.21;36.40;100738.84;10262888;28;20055;-78
2022/07/18 21:23:09;;;;;;;4.82;3.22;;;;;;;25.21;36.55;100741.59;10251241;28;20575;-78
2022/07/18 21:28:14;;;;;;;8.43;3.47;;;;;;;25.06;36.98;100740.94;10248488;28;20109;-79
2022/07/18 21:33:16;;;;;;;4.15;2.90;;;;;;;24.94;37.35;100741.53;10268821;28;20050;-79
2022/07/18 21:38:19;;;;;;;2.83;2.60;;;;;;;24.75;37.67;100751.47;10249740;28;20065;-78
2022/07/18 21:43:23;;;;;;;7.55;2.90;;;;;;;24.50;38.27;100742.13;10234372;28;20051;-78
2022/07/18 21:48:26;;;;;;;4.43;2.83;;;;;;;24.51;38.72;100747.41;10244691;28;20082;-79
2022/07/18 21:53:29;;;;;;;5.68;2.90;;;;;;;24.41;39.28;100752.47;10253690;28;20058;-79
2022/07/18 21:58:33;;;;;;;4.43;2.80;;;;;;;24.28;39.77;100744.16;10261222;28;20055;-78
2022/07/18 22:03:36;;;;;;;5.03;3.05;;;;;;;24.13;40.09;100741.53;10263774;28;20086;-78
2022/07/18 22:08:39;;;;;;;6.72;2.95;;;;;;;23.91;40.94;100740.81;10256800;28;20059;-79
2022/07/18 22:13:43;;;;;;;5.25;3.17;;;;;;;23.70;41.02;100738.19;10241362;28;20500;-79
2022/07/18 22:18:46;;;;;;;4.40;2.83;;;;;;;23.56;41.59;100731.72;10232454;28;20059;-78
2022/07/18 22:23:50;;;;;;;3.67;2.60;;;;;;;23.49;41.75;100728.97;10234318;28;20512;-79
2022/07/18 22:28:54;;;;;;;3.78;2.65;;;;;;;23.47;42.10;100741.19;10255262;28;20051;-79
2022/07/18 22:33:57;;;;;;;3.80;2.83;;;;;;;23.41;42.08;100732.72;10254567;28;20125;-78
2022/07/18 22:39:00;;;;;;;6.07;3.00;;;;;;;23.39;42.20;100726.59;10248597;28;20081;-79
2022/07/18 22:44:05;;;;;;;5.05;3.67;;;;;;;23.41;41.80;100738.19;10254301;28;20059;-79
2022/07/18 22:49:08;;;;;;;6.13;3.78;;;;;;;23.28;42.06;100737.25;10259626;28;20050;-78
2022/07/18 22:54:11;;;;;;;3.78;2.90;;;;;;;23.08;43.53;100734.34;10255535;28;20066;-78
2022/07/18 22:59:15;;;;;;;5.95;3.10;;;;;;;22.52;44.18;100743.31;10254186;28;20070;-78
2022/07/18 23:04:18;;;;;;;4.32;2.90;;;;;;;22.38;44.07;100735.94;10229683;28;20051;-79
2022/07/18 23:09:22;;;;;;;5.70;2.85;;;;;;;22.38;44.29;100735.94;10235203;28;20046;-78
2022/07/18 23:14:26;;;;;;;4.05;2.88;;;;;;;22.47;43.51;100738.41;10276651;28;20114;-77
2022/07/18 23:19:29;;;;;;;5.13;2.90;;;;;;;22.51;43.77;100736.13;10269483;28;20653;-78
2022/07/18 23:24:32;;;;;;;7.90;3.25;;;;;;;22.53;43.36;100734.88;10246191;28;20412;-78